sensor_id;sensor_type;location;lat;lon;timestamp;temperature;humidity
17252;DHT22;8742;51.716;8.790;2023-02-28T00:00:07;-0.40;99.90
17252;DHT22;8742;51.716;8.790;2023-02-28T00:02:37;-0.30;99.90
17252;DHT22;8742;51.716;8.790;2023-02-28T00:05:05;-0.20;99.90
17252;DHT22;8742;51.716;8.790;2023-02-28T00:07:33;-0.20;99.90
17252;DHT22;8742;51.716;8.790;2023-02-28T00:10:00;-0.10;99.90
17252;DHT22;8742;51.716;8.790;2023-02-28T00:12:27;-0.10;99.90
17252;DHT22;8742;51.716;8.790;2023-02-28T00:14:54;-0.10;99.90
17252;DHT22;8742;51.716;8.790;2023-02-28T00:17:21;-0.10;99.90
17252;DHT22;8742;51.716;8.790;2023-02-28T00:19:51;0.00;99.90
17252;DHT22;8742;51.716;8.790;2023-02-28T00:22:20;0.00;99.90
17252;DHT22;8742;51.716;8.790;2023-02-28T00:24:47;-0.10;99.90
17252;DHT22;8742;51.716;8.790;2023-02-28T00:27:14;-0.10;99.90
17252;DHT22;8742;51.716;8.790;2023-02-28T00:29:41;-0.10;99.90
17252;DHT22;8742;51.716;8.790;2023-02-28T00:32:08;-0.10;99.90
17252;DHT22;8742;51.716;8.790;2023-02-28T00:34:35;-0.10;99.90
17252;DHT22;8742;51.716;8.790;2023-02-28T00:37:04;-0.20;99.90
17252;DHT22;8742;51.716;8.790;2023-02-28T00:39:34;-0.20;99.90
17252;DHT22;8742;51.716;8.790;2023-02-28T00:42:02;-0.20;99.90
17252;DHT22;8742;51.716;8.790;2023-02-28T00:44:29;-0.20;99.90
17252;DHT22;8742;51.716;8.790;2023-02-28T00:46:57;-0.20;99.90
17252;DHT22;8742;51.716;8.790;2023-02-28T00:49:24;-0.20;99.90
17252;DHT22;8742;51.716;8.790;2023-02-28T00:51:51;-0.30;99.90
17252;DHT22;8742;51.716;8.790;2023-02-28T00:54:20;-0.30;99.90
17252;DHT22;8742;51.716;8.790;2023-02-28T00:56:47;-0.40;99.90
17252;DHT22;8742;51.716;8.790;2023-02-28T00:59:16;-0.50;99.90
17252;DHT22;8742;51.716;8.790;2023-02-28T01:01:44;-0.50;99.90
17252;DHT22;8742;51.716;8.790;2023-02-28T01:04:12;-0.60;99.90
17252;DHT22;8742;51.716;8.790;2023-02-28T01:06:39;-0.70;99.90
17252;DHT22;8742;51.716;8.790;2023-02-28T01:09:07;-0.80;99.90
17252;DHT22;8742;51.716;8.790;2023-02-28T01:11:35;-0.90;99.90
17252;DHT22;8742;51.716;8.790;2023-02-28T01:14:03;-1.00;99.90
17252;DHT22;8742;51.716;8.790;2023-02-28T01:16:30;-1.10;99.90
17252;DHT22;8742;51.716;8.790;2023-02-28T01:18:57;-1.20;99.90
17252;DHT22;8742;51.716;8.790;2023-02-28T01:21:24;-1.20;99.90
17252;DHT22;8742;51.716;8.790;2023-02-28T01:23:51;-1.30;99.90
17252;DHT22;8742;51.716;8.790;2023-02-28T01:26:20;-1.40;99.90
17252;DHT22;8742;51.716;8.790;2023-02-28T01:28:50;-1.40;99.90
17252;DHT22;8742;51.716;8.790;2023-02-28T01:31:19;-1.40;99.90
17252;DHT22;8742;51.716;8.790;2023-02-28T01:33:46;-1.50;99.90
17252;DHT22;8742;51.716;8.790;2023-02-28T01:36:16;-1.50;99.90
17252;DHT22;8742;51.716;8.790;2023-02-28T01:38:43;-1.60;99.90
17252;DHT22;8742;51.716;8.790;2023-02-28T01:41:15;-1.60;99.90
17252;DHT22;8742;51.716;8.790;2023-02-28T01:44:02;-1.70;99.90
17252;DHT22;8742;51.716;8.790;2023-02-28T01:46:30;-1.70;99.90
17252;DHT22;8742;51.716;8.790;2023-02-28T01:49:02;-1.70;99.90
17252;DHT22;8742;51.716;8.790;2023-02-28T01:51:31;-1.70;99.90
17252;DHT22;8742;51.716;8.790;2023-02-28T01:54:05;-1.80;99.90
17252;DHT22;8742;51.716;8.790;2023-02-28T01:56:43;-1.70;99.90
17252;DHT22;8742;51.716;8.790;2023-02-28T01:59:21;-1.80;99.90
17252;DHT22;8742;51.716;8.790;2023-02-28T02:01:48;-1.80;99.90
17252;DHT22;8742;51.716;8.790;2023-02-28T02:04:16;-1.70;99.90
17252;DHT22;8742;51.716;8.790;2023-02-28T02:06:44;-1.80;99.90
17252;DHT22;8742;51.716;8.790;2023-02-28T02:09:14;-1.80;99.90
17252;DHT22;8742;51.716;8.790;2023-02-28T02:11:43;-1.80;99.90
17252;DHT22;8742;51.716;8.790;2023-02-28T02:14:27;-1.70;99.90
17252;DHT22;8742;51.716;8.790;2023-02-28T02:17:09;-1.80;99.90
17252;DHT22;8742;51.716;8.790;2023-02-28T02:20:15;-1.70;99.90
17252;DHT22;8742;51.716;8.790;2023-02-28T02:23:03;-1.70;99.90
17252;DHT22;8742;51.716;8.790;2023-02-28T02:25:36;-1.70;99.90
17252;DHT22;8742;51.716;8.790;2023-02-28T02:28:31;-1.70;99.90
17252;DHT22;8742;51.716;8.790;2023-02-28T02:34:30;-1.60;99.90
17252;DHT22;8742;51.716;8.790;2023-02-28T02:37:19;-1.60;99.90
17252;DHT22;8742;51.716;8.790;2023-02-28T02:39:51;-1.60;99.90
17252;DHT22;8742;51.716;8.790;2023-02-28T02:42:26;-1.70;99.90
17252;DHT22;8742;51.716;8.790;2023-02-28T02:44:59;-1.70;99.90
17252;DHT22;8742;51.716;8.790;2023-02-28T02:47:29;-1.70;99.90
17252;DHT22;8742;51.716;8.790;2023-02-28T02:50:03;-1.80;99.90
17252;DHT22;8742;51.716;8.790;2023-02-28T02:52:36;-1.80;99.90
17252;DHT22;8742;51.716;8.790;2023-02-28T02:55:07;-1.80;99.90
17252;DHT22;8742;51.716;8.790;2023-02-28T02:57:40;-1.80;99.90
17252;DHT22;8742;51.716;8.790;2023-02-28T03:00:11;-1.90;99.90
17252;DHT22;8742;51.716;8.790;2023-02-28T03:02:39;-1.90;99.90
17252;DHT22;8742;51.716;8.790;2023-02-28T03:05:14;-1.90;99.90
17252;DHT22;8742;51.716;8.790;2023-02-28T03:07:42;-1.90;99.90
17252;DHT22;8742;51.716;8.790;2023-02-28T03:10:34;-2.00;99.90
17252;DHT22;8742;51.716;8.790;2023-02-28T03:13:11;-2.10;99.90
17252;DHT22;8742;51.716;8.790;2023-02-28T03:15:53;-2.10;99.90
17252;DHT22;8742;51.716;8.790;2023-02-28T03:18:29;-2.10;99.90
17252;DHT22;8742;51.716;8.790;2023-02-28T03:21:04;-2.20;99.90
17252;DHT22;8742;51.716;8.790;2023-02-28T03:23:40;-2.20;99.90
17252;DHT22;8742;51.716;8.790;2023-02-28T03:26:16;-2.20;99.90
17252;DHT22;8742;51.716;8.790;2023-02-28T03:28:50;-2.20;99.90
17252;DHT22;8742;51.716;8.790;2023-02-28T03:31:22;-2.20;99.90
17252;DHT22;8742;51.716;8.790;2023-02-28T03:33:53;-2.20;99.90
17252;DHT22;8742;51.716;8.790;2023-02-28T03:36:27;-2.30;99.90
17252;DHT22;8742;51.716;8.790;2023-02-28T03:38:57;-2.40;99.90
17252;DHT22;8742;51.716;8.790;2023-02-28T03:41:32;-2.40;99.90
17252;DHT22;8742;51.716;8.790;2023-02-28T03:44:08;-2.50;99.90
17252;DHT22;8742;51.716;8.790;2023-02-28T03:46:38;-2.50;99.90
17252;DHT22;8742;51.716;8.790;2023-02-28T03:49:13;-2.60;99.90
17252;DHT22;8742;51.716;8.790;2023-02-28T03:51:43;-2.50;99.90
17252;DHT22;8742;51.716;8.790;2023-02-28T03:54:13;-2.50;99.90
17252;DHT22;8742;51.716;8.790;2023-02-28T03:56:45;-2.50;99.90
17252;DHT22;8742;51.716;8.790;2023-02-28T03:59:17;-2.50;99.90
17252;DHT22;8742;51.716;8.790;2023-02-28T04:01:48;-2.50;99.90
17252;DHT22;8742;51.716;8.790;2023-02-28T04:04:16;-2.50;99.90
17252;DHT22;8742;51.716;8.790;2023-02-28T04:06:45;-2.50;99.90
17252;DHT22;8742;51.716;8.790;2023-02-28T04:09:13;-2.60;99.90
17252;DHT22;8742;51.716;8.790;2023-02-28T04:11:42;-2.60;99.90
17252;DHT22;8742;51.716;8.790;2023-02-28T04:14:11;-2.70;99.90
17252;DHT22;8742;51.716;8.790;2023-02-28T04:16:40;-2.70;99.90
17252;DHT22;8742;51.716;8.790;2023-02-28T04:19:08;-2.80;99.90
17252;DHT22;8742;51.716;8.790;2023-02-28T04:21:37;-2.80;99.90
17252;DHT22;8742;51.716;8.790;2023-02-28T04:24:07;-2.90;99.90
17252;DHT22;8742;51.716;8.790;2023-02-28T04:26:40;-2.90;99.90
17252;DHT22;8742;51.716;8.790;2023-02-28T04:29:07;-3.00;99.90
17252;DHT22;8742;51.716;8.790;2023-02-28T04:31:34;-3.00;99.90
17252;DHT22;8742;51.716;8.790;2023-02-28T04:34:01;-3.10;99.90
17252;DHT22;8742;51.716;8.790;2023-02-28T04:36:28;-3.10;99.90
17252;DHT22;8742;51.716;8.790;2023-02-28T04:38:57;-3.20;99.90
17252;DHT22;8742;51.716;8.790;2023-02-28T04:41:25;-3.20;99.90
17252;DHT22;8742;51.716;8.790;2023-02-28T04:43:52;-3.20;99.90
17252;DHT22;8742;51.716;8.790;2023-02-28T04:46:20;-3.20;99.90
17252;DHT22;8742;51.716;8.790;2023-02-28T04:48:47;-3.20;99.90
17252;DHT22;8742;51.716;8.790;2023-02-28T04:51:15;-3.10;99.90
17252;DHT22;8742;51.716;8.790;2023-02-28T04:53:44;-3.10;99.90
17252;DHT22;8742;51.716;8.790;2023-02-28T04:56:12;-3.00;99.90
17252;DHT22;8742;51.716;8.790;2023-02-28T04:58:41;-3.00;99.90
17252;DHT22;8742;51.716;8.790;2023-02-28T05:01:18;-3.00;99.90
17252;DHT22;8742;51.716;8.790;2023-02-28T05:03:46;-2.90;99.90
17252;DHT22;8742;51.716;8.790;2023-02-28T05:06:14;-2.90;99.90
17252;DHT22;8742;51.716;8.790;2023-02-28T05:08:41;-2.80;99.90
17252;DHT22;8742;51.716;8.790;2023-02-28T05:11:14;-2.80;99.90
17252;DHT22;8742;51.716;8.790;2023-02-28T05:13:43;-2.70;99.90
17252;DHT22;8742;51.716;8.790;2023-02-28T05:16:10;-2.60;99.90
17252;DHT22;8742;51.716;8.790;2023-02-28T05:18:37;-2.50;99.90
17252;DHT22;8742;51.716;8.790;2023-02-28T05:21:04;-2.50;99.90
17252;DHT22;8742;51.716;8.790;2023-02-28T05:23:33;-2.40;99.90
17252;DHT22;8742;51.716;8.790;2023-02-28T05:26:00;-2.30;99.90
17252;DHT22;8742;51.716;8.790;2023-02-28T05:28:27;-2.30;99.90
17252;DHT22;8742;51.716;8.790;2023-02-28T05:30:55;-2.30;99.90
17252;DHT22;8742;51.716;8.790;2023-02-28T05:33:22;-2.20;99.90
17252;DHT22;8742;51.716;8.790;2023-02-28T05:35:49;-2.10;99.90
17252;DHT22;8742;51.716;8.790;2023-02-28T05:38:16;-2.10;99.90
17252;DHT22;8742;51.716;8.790;2023-02-28T05:40:43;-2.00;99.90
17252;DHT22;8742;51.716;8.790;2023-02-28T05:43:11;-2.00;99.90
17252;DHT22;8742;51.716;8.790;2023-02-28T05:45:38;-2.00;99.90
17252;DHT22;8742;51.716;8.790;2023-02-28T05:48:08;-2.00;99.90
17252;DHT22;8742;51.716;8.790;2023-02-28T05:50:35;-2.00;99.90
17252;DHT22;8742;51.716;8.790;2023-02-28T05:53:03;-2.10;99.90
17252;DHT22;8742;51.716;8.790;2023-02-28T05:55:30;-2.20;99.90
17252;DHT22;8742;51.716;8.790;2023-02-28T05:57:57;-2.20;99.90
17252;DHT22;8742;51.716;8.790;2023-02-28T06:00:24;-2.30;99.90
17252;DHT22;8742;51.716;8.790;2023-02-28T06:02:51;-2.40;99.90
17252;DHT22;8742;51.716;8.790;2023-02-28T06:05:23;-2.40;99.90
17252;DHT22;8742;51.716;8.790;2023-02-28T06:07:50;-2.50;99.90
17252;DHT22;8742;51.716;8.790;2023-02-28T06:10:17;-2.50;99.90
17252;DHT22;8742;51.716;8.790;2023-02-28T06:12:45;-2.60;99.90
17252;DHT22;8742;51.716;8.790;2023-02-28T06:15:13;-2.60;99.90
17252;DHT22;8742;51.716;8.790;2023-02-28T06:17:40;-2.70;99.90
17252;DHT22;8742;51.716;8.790;2023-02-28T06:20:08;-2.70;99.90
17252;DHT22;8742;51.716;8.790;2023-02-28T06:22:37;-2.80;99.90
17252;DHT22;8742;51.716;8.790;2023-02-28T06:25:06;-2.80;99.90
17252;DHT22;8742;51.716;8.790;2023-02-28T06:27:33;-2.90;99.90
17252;DHT22;8742;51.716;8.790;2023-02-28T06:30:00;-2.90;99.90
17252;DHT22;8742;51.716;8.790;2023-02-28T06:32:27;-3.00;99.90
17252;DHT22;8742;51.716;8.790;2023-02-28T06:34:55;-3.00;99.90
17252;DHT22;8742;51.716;8.790;2023-02-28T06:37:23;-3.00;99.90
17252;DHT22;8742;51.716;8.790;2023-02-28T06:39:54;-3.00;99.90
17252;DHT22;8742;51.716;8.790;2023-02-28T06:42:22;-3.00;99.90
17252;DHT22;8742;51.716;8.790;2023-02-28T06:44:50;-3.00;99.90
17252;DHT22;8742;51.716;8.790;2023-02-28T06:47:17;-2.90;99.90
17252;DHT22;8742;51.716;8.790;2023-02-28T06:49:44;-2.90;99.90
17252;DHT22;8742;51.716;8.790;2023-02-28T06:52:11;-2.80;99.90
17252;DHT22;8742;51.716;8.790;2023-02-28T06:54:38;-2.70;99.90
17252;DHT22;8742;51.716;8.790;2023-02-28T06:57:07;-2.70;99.90
17252;DHT22;8742;51.716;8.790;2023-02-28T06:59:34;-2.60;99.90
17252;DHT22;8742;51.716;8.790;2023-02-28T07:02:02;-2.50;99.90
17252;DHT22;8742;51.716;8.790;2023-02-28T07:04:29;-2.40;99.90
17252;DHT22;8742;51.716;8.790;2023-02-28T07:06:56;-2.40;99.90
17252;DHT22;8742;51.716;8.790;2023-02-28T07:09:23;-2.30;99.90
17252;DHT22;8742;51.716;8.790;2023-02-28T07:11:55;-2.20;99.90
17252;DHT22;8742;51.716;8.790;2023-02-28T07:14:23;-2.20;99.90
17252;DHT22;8742;51.716;8.790;2023-02-28T07:16:50;-2.10;99.90
17252;DHT22;8742;51.716;8.790;2023-02-28T07:19:17;-2.00;99.90
17252;DHT22;8742;51.716;8.790;2023-02-28T07:21:44;-2.00;99.90
17252;DHT22;8742;51.716;8.790;2023-02-28T07:24:11;-1.90;99.90
17252;DHT22;8742;51.716;8.790;2023-02-28T07:26:41;-1.80;99.90
17252;DHT22;8742;51.716;8.790;2023-02-28T07:29:08;-1.70;99.90
17252;DHT22;8742;51.716;8.790;2023-02-28T07:31:36;-1.70;99.90
17252;DHT22;8742;51.716;8.790;2023-02-28T07:34:03;-1.60;99.90
17252;DHT22;8742;51.716;8.790;2023-02-28T07:36:30;-1.60;99.90
17252;DHT22;8742;51.716;8.790;2023-02-28T07:38:58;-1.50;99.90
17252;DHT22;8742;51.716;8.790;2023-02-28T07:41:25;-1.50;99.90
17252;DHT22;8742;51.716;8.790;2023-02-28T07:43:54;-1.40;99.90
17252;DHT22;8742;51.716;8.790;2023-02-28T07:46:21;-1.40;99.90
17252;DHT22;8742;51.716;8.790;2023-02-28T07:48:50;-1.30;99.90
17252;DHT22;8742;51.716;8.790;2023-02-28T07:51:17;-1.10;99.90
17252;DHT22;8742;51.716;8.790;2023-02-28T07:53:44;-1.00;99.90
17252;DHT22;8742;51.716;8.790;2023-02-28T07:58:43;-0.70;99.90
17252;DHT22;8742;51.716;8.790;2023-02-28T08:01:11;-0.60;99.90
17252;DHT22;8742;51.716;8.790;2023-02-28T08:03:39;-0.50;99.90
17252;DHT22;8742;51.716;8.790;2023-02-28T08:06:14;-0.40;99.90
17252;DHT22;8742;51.716;8.790;2023-02-28T08:08:42;-0.20;99.90
17252;DHT22;8742;51.716;8.790;2023-02-28T08:11:10;0.00;99.90
17252;DHT22;8742;51.716;8.790;2023-02-28T08:13:57;0.20;99.90
17252;DHT22;8742;51.716;8.790;2023-02-28T08:16:24;0.40;99.90
17252;DHT22;8742;51.716;8.790;2023-02-28T08:18:52;0.60;99.90
17252;DHT22;8742;51.716;8.790;2023-02-28T08:21:21;0.70;99.90
17252;DHT22;8742;51.716;8.790;2023-02-28T08:23:48;0.90;99.90
17252;DHT22;8742;51.716;8.790;2023-02-28T08:26:16;1.10;99.90
17252;DHT22;8742;51.716;8.790;2023-02-28T08:28:43;1.30;99.90
17252;DHT22;8742;51.716;8.790;2023-02-28T08:31:12;1.50;99.90
17252;DHT22;8742;51.716;8.790;2023-02-28T08:33:40;1.70;99.90
17252;DHT22;8742;51.716;8.790;2023-02-28T08:36:08;1.90;99.90
17252;DHT22;8742;51.716;8.790;2023-02-28T08:38:37;2.10;99.90
17252;DHT22;8742;51.716;8.790;2023-02-28T08:41:06;2.40;99.90
17252;DHT22;8742;51.716;8.790;2023-02-28T08:43:37;2.60;99.90
17252;DHT22;8742;51.716;8.790;2023-02-28T08:46:05;2.80;99.90
17252;DHT22;8742;51.716;8.790;2023-02-28T08:48:41;3.10;99.90
17252;DHT22;8742;51.716;8.790;2023-02-28T08:51:11;3.30;99.90
17252;DHT22;8742;51.716;8.790;2023-02-28T08:53:40;3.70;99.90
17252;DHT22;8742;51.716;8.790;2023-02-28T08:56:09;4.00;99.90
17252;DHT22;8742;51.716;8.790;2023-02-28T09:01:52;5.50;99.90
17252;DHT22;8742;51.716;8.790;2023-02-28T09:04:19;5.90;99.90
17252;DHT22;8742;51.716;8.790;2023-02-28T09:06:46;6.40;99.90
17252;DHT22;8742;51.716;8.790;2023-02-28T09:09:15;6.70;99.90
17252;DHT22;8742;51.716;8.790;2023-02-28T09:11:42;7.00;99.90
17252;DHT22;8742;51.716;8.790;2023-02-28T09:14:09;7.40;99.90
17252;DHT22;8742;51.716;8.790;2023-02-28T09:16:36;7.70;99.90
17252;DHT22;8742;51.716;8.790;2023-02-28T09:19:03;7.80;99.90
17252;DHT22;8742;51.716;8.790;2023-02-28T09:21:30;8.20;99.90
17252;DHT22;8742;51.716;8.790;2023-02-28T09:23:57;8.50;99.90
17252;DHT22;8742;51.716;8.790;2023-02-28T09:26:27;8.90;99.90
17252;DHT22;8742;51.716;8.790;2023-02-28T09:28:54;9.40;99.90
17252;DHT22;8742;51.716;8.790;2023-02-28T09:31:24;9.90;99.90
17252;DHT22;8742;51.716;8.790;2023-02-28T09:34:10;10.20;99.90
17252;DHT22;8742;51.716;8.790;2023-02-28T09:36:37;10.50;99.90
17252;DHT22;8742;51.716;8.790;2023-02-28T09:39:04;10.50;99.90
17252;DHT22;8742;51.716;8.790;2023-02-28T09:41:39;10.30;99.90
17252;DHT22;8742;51.716;8.790;2023-02-28T09:44:20;9.90;99.90
17252;DHT22;8742;51.716;8.790;2023-02-28T09:46:53;9.70;99.90
17252;DHT22;8742;51.716;8.790;2023-02-28T09:49:24;9.60;99.90
17252;DHT22;8742;51.716;8.790;2023-02-28T09:51:57;9.60;99.90
17252;DHT22;8742;51.716;8.790;2023-02-28T09:54:32;9.50;99.90
17252;DHT22;8742;51.716;8.790;2023-02-28T09:57:06;9.30;99.90
17252;DHT22;8742;51.716;8.790;2023-02-28T09:59:53;9.10;99.90
17252;DHT22;8742;51.716;8.790;2023-02-28T10:05:27;9.30;99.90
17252;DHT22;8742;51.716;8.790;2023-02-28T10:08:02;9.70;99.90
17252;DHT22;8742;51.716;8.790;2023-02-28T10:10:35;10.40;99.90
17252;DHT22;8742;51.716;8.790;2023-02-28T10:13:12;10.80;99.90
17252;DHT22;8742;51.716;8.790;2023-02-28T10:15:45;11.10;99.90
17252;DHT22;8742;51.716;8.790;2023-02-28T10:18:16;10.80;99.90
17252;DHT22;8742;51.716;8.790;2023-02-28T10:20:56;10.40;99.10
17252;DHT22;8742;51.716;8.790;2023-02-28T10:23:26;9.80;99.20
17252;DHT22;8742;51.716;8.790;2023-02-28T10:25:57;9.10;98.60
17252;DHT22;8742;51.716;8.790;2023-02-28T10:28:29;8.40;98.60
17252;DHT22;8742;51.716;8.790;2023-02-28T10:30:58;7.70;99.90
17252;DHT22;8742;51.716;8.790;2023-02-28T10:33:28;7.30;99.90
17252;DHT22;8742;51.716;8.790;2023-02-28T10:35:55;7.00;99.90
17252;DHT22;8742;51.716;8.790;2023-02-28T10:38:32;7.20;99.90
17252;DHT22;8742;51.716;8.790;2023-02-28T10:41:12;7.50;99.90
17252;DHT22;8742;51.716;8.790;2023-02-28T10:43:42;7.90;99.90
17252;DHT22;8742;51.716;8.790;2023-02-28T10:46:14;8.70;99.90
17252;DHT22;8742;51.716;8.790;2023-02-28T10:49:01;9.00;99.90
17252;DHT22;8742;51.716;8.790;2023-02-28T10:51:35;9.20;99.90
17252;DHT22;8742;51.716;8.790;2023-02-28T10:54:05;9.10;99.90
17252;DHT22;8742;51.716;8.790;2023-02-28T10:56:41;8.90;99.90
17252;DHT22;8742;51.716;8.790;2023-02-28T10:59:28;8.60;99.90
17252;DHT22;8742;51.716;8.790;2023-02-28T11:01:56;8.20;99.90
17252;DHT22;8742;51.716;8.790;2023-02-28T11:04:35;8.00;99.90
17252;DHT22;8742;51.716;8.790;2023-02-28T11:07:10;7.80;99.90
17252;DHT22;8742;51.716;8.790;2023-02-28T11:09:46;7.70;99.90
17252;DHT22;8742;51.716;8.790;2023-02-28T11:12:21;7.70;99.90
17252;DHT22;8742;51.716;8.790;2023-02-28T11:14:53;7.60;99.90
17252;DHT22;8742;51.716;8.790;2023-02-28T11:17:24;7.50;99.90
17252;DHT22;8742;51.716;8.790;2023-02-28T11:19:54;7.20;99.90
17252;DHT22;8742;51.716;8.790;2023-02-28T11:22:23;6.90;99.90
17252;DHT22;8742;51.716;8.790;2023-02-28T11:24:55;6.70;99.90
17252;DHT22;8742;51.716;8.790;2023-02-28T11:27:44;6.70;99.90
17252;DHT22;8742;51.716;8.790;2023-02-28T11:30:37;7.00;99.90
17252;DHT22;8742;51.716;8.790;2023-02-28T11:33:22;7.50;99.90
17252;DHT22;8742;51.716;8.790;2023-02-28T11:35:50;7.70;99.90
17252;DHT22;8742;51.716;8.790;2023-02-28T11:38:18;7.70;99.90
17252;DHT22;8742;51.716;8.790;2023-02-28T11:40:49;7.70;99.90
17252;DHT22;8742;51.716;8.790;2023-02-28T11:43:30;7.60;99.90
17252;DHT22;8742;51.716;8.790;2023-02-28T11:46:20;7.60;99.90
17252;DHT22;8742;51.716;8.790;2023-02-28T11:48:58;7.90;99.90
17252;DHT22;8742;51.716;8.790;2023-02-28T11:51:29;8.40;99.90
17252;DHT22;8742;51.716;8.790;2023-02-28T11:54:32;9.30;99.90
17252;DHT22;8742;51.716;8.790;2023-02-28T11:57:14;10.50;99.90
17252;DHT22;8742;51.716;8.790;2023-02-28T11:59:56;11.10;99.90
17252;DHT22;8742;51.716;8.790;2023-02-28T12:02:40;10.80;99.90
17252;DHT22;8742;51.716;8.790;2023-02-28T12:05:18;10.50;99.90
17252;DHT22;8742;51.716;8.790;2023-02-28T12:07:58;10.00;98.90
17252;DHT22;8742;51.716;8.790;2023-02-28T12:10:44;9.90;99.90
17252;DHT22;8742;51.716;8.790;2023-02-28T12:13:20;10.60;99.90
17252;DHT22;8742;51.716;8.790;2023-02-28T12:19:21;10.80;98.60
17252;DHT22;8742;51.716;8.790;2023-02-28T12:22:15;11.20;99.90
17252;DHT22;8742;51.716;8.790;2023-02-28T12:25:21;10.90;99.90
17252;DHT22;8742;51.716;8.790;2023-02-28T12:27:51;10.40;99.60
17252;DHT22;8742;51.716;8.790;2023-02-28T12:30:23;10.80;99.90
17252;DHT22;8742;51.716;8.790;2023-02-28T12:32:54;11.10;97.90
17252;DHT22;8742;51.716;8.790;2023-02-28T12:35:26;10.90;99.60
17252;DHT22;8742;51.716;8.790;2023-02-28T12:38:01;10.60;98.70
17252;DHT22;8742;51.716;8.790;2023-02-28T12:40:38;10.70;99.80
17252;DHT22;8742;51.716;8.790;2023-02-28T12:43:08;11.50;99.90
17252;DHT22;8742;51.716;8.790;2023-02-28T12:45:41;12.00;98.40
17252;DHT22;8742;51.716;8.790;2023-02-28T12:48:19;11.60;97.80
17252;DHT22;8742;51.716;8.790;2023-02-28T12:50:48;11.40;97.40
17252;DHT22;8742;51.716;8.790;2023-02-28T12:53:21;11.80;99.00
17252;DHT22;8742;51.716;8.790;2023-02-28T12:55:56;12.60;98.00
17252;DHT22;8742;51.716;8.790;2023-02-28T12:58:30;12.60;96.90
17252;DHT22;8742;51.716;8.790;2023-02-28T13:01:14;12.30;97.50
17252;DHT22;8742;51.716;8.790;2023-02-28T13:04:19;12.70;99.50
17252;DHT22;8742;51.716;8.790;2023-02-28T13:09:41;14.00;95.00
17252;DHT22;8742;51.716;8.790;2023-02-28T13:12:15;14.00;94.10
17252;DHT22;8742;51.716;8.790;2023-02-28T13:14:42;13.80;94.10
17252;DHT22;8742;51.716;8.790;2023-02-28T13:17:15;13.70;94.00
17252;DHT22;8742;51.716;8.790;2023-02-28T13:19:55;13.50;93.90
17252;DHT22;8742;51.716;8.790;2023-02-28T13:22:39;13.00;94.10
17252;DHT22;8742;51.716;8.790;2023-02-28T13:31:31;10.30;94.40
17252;DHT22;8742;51.716;8.790;2023-02-28T13:34:15;9.70;94.80
17252;DHT22;8742;51.716;8.790;2023-02-28T13:36:42;9.50;95.60
17252;DHT22;8742;51.716;8.790;2023-02-28T13:39:47;9.80;96.90
17252;DHT22;8742;51.716;8.790;2023-02-28T13:42:36;10.50;96.10
17252;DHT22;8742;51.716;8.790;2023-02-28T13:48:46;11.70;95.50
17252;DHT22;8742;51.716;8.790;2023-02-28T13:51:39;12.50;94.40
17252;DHT22;8742;51.716;8.790;2023-02-28T13:54:20;13.30;96.10
17252;DHT22;8742;51.716;8.790;2023-02-28T13:57:01;14.00;94.50
17252;DHT22;8742;51.716;8.790;2023-02-28T13:59:35;14.60;93.90
17252;DHT22;8742;51.716;8.790;2023-02-28T14:02:34;14.90;91.00
17252;DHT22;8742;51.716;8.790;2023-02-28T14:05:06;15.00;91.30
17252;DHT22;8742;51.716;8.790;2023-02-28T14:07:42;15.00;90.10
17252;DHT22;8742;51.716;8.790;2023-02-28T14:10:23;14.70;90.40
17252;DHT22;8742;51.716;8.790;2023-02-28T14:12:58;14.70;89.00
17252;DHT22;8742;51.716;8.790;2023-02-28T14:15:38;14.70;88.10
17252;DHT22;8742;51.716;8.790;2023-02-28T14:18:16;14.90;89.20
17252;DHT22;8742;51.716;8.790;2023-02-28T14:20:44;14.60;88.10
17252;DHT22;8742;51.716;8.790;2023-02-28T14:23:20;14.20;90.20
17252;DHT22;8742;51.716;8.790;2023-02-28T14:25:57;13.50;87.40
17252;DHT22;8742;51.716;8.790;2023-02-28T14:28:49;13.30;89.80
17252;DHT22;8742;51.716;8.790;2023-02-28T14:31:24;13.40;88.90
17252;DHT22;8742;51.716;8.790;2023-02-28T14:34:17;13.60;90.90
17252;DHT22;8742;51.716;8.790;2023-02-28T14:36:58;13.90;91.10
17252;DHT22;8742;51.716;8.790;2023-02-28T14:39:41;14.10;90.20
17252;DHT22;8742;51.716;8.790;2023-02-28T14:42:28;14.40;90.60
17252;DHT22;8742;51.716;8.790;2023-02-28T14:44:57;14.70;90.20
17252;DHT22;8742;51.716;8.790;2023-02-28T14:47:27;15.10;91.80
17252;DHT22;8742;51.716;8.790;2023-02-28T14:50:05;15.40;90.10
17252;DHT22;8742;51.716;8.790;2023-02-28T14:52:33;15.60;90.20
17252;DHT22;8742;51.716;8.790;2023-02-28T14:55:16;15.60;86.70
17252;DHT22;8742;51.716;8.790;2023-02-28T14:57:51;15.40;86.80
17252;DHT22;8742;51.716;8.790;2023-02-28T15:00:32;15.40;90.50
17252;DHT22;8742;51.716;8.790;2023-02-28T15:03:19;15.40;84.70
17252;DHT22;8742;51.716;8.790;2023-02-28T15:05:57;15.30;88.00
17252;DHT22;8742;51.716;8.790;2023-02-28T15:08:24;15.30;86.20
17252;DHT22;8742;51.716;8.790;2023-02-28T15:10:56;15.20;88.60
17252;DHT22;8742;51.716;8.790;2023-02-28T15:13:40;15.30;88.60
17252;DHT22;8742;51.716;8.790;2023-02-28T15:16:24;15.50;84.80
17252;DHT22;8742;51.716;8.790;2023-02-28T15:18:54;15.40;83.00
17252;DHT22;8742;51.716;8.790;2023-02-28T15:21:34;15.40;86.80
17252;DHT22;8742;51.716;8.790;2023-02-28T15:24:05;15.30;85.20
17252;DHT22;8742;51.716;8.790;2023-02-28T15:26:45;15.20;83.60
17252;DHT22;8742;51.716;8.790;2023-02-28T15:29:20;15.00;82.40
17252;DHT22;8742;51.716;8.790;2023-02-28T15:31:50;15.00;85.70
17252;DHT22;8742;51.716;8.790;2023-02-28T15:34:26;15.00;85.10
17252;DHT22;8742;51.716;8.790;2023-02-28T15:39:42;15.10;87.40
17252;DHT22;8742;51.716;8.790;2023-02-28T15:42:30;15.00;86.10
17252;DHT22;8742;51.716;8.790;2023-02-28T15:44:57;14.90;84.40
17252;DHT22;8742;51.716;8.790;2023-02-28T15:47:28;14.70;85.40
17252;DHT22;8742;51.716;8.790;2023-02-28T15:49:58;14.50;85.60
17252;DHT22;8742;51.716;8.790;2023-02-28T15:52:29;14.50;88.60
17252;DHT22;8742;51.716;8.790;2023-02-28T15:54:58;14.40;83.00
17252;DHT22;8742;51.716;8.790;2023-02-28T15:57:29;14.00;80.20
17252;DHT22;8742;51.716;8.790;2023-02-28T15:59:59;13.70;84.00
17252;DHT22;8742;51.716;8.790;2023-02-28T16:02:33;13.50;83.10
17252;DHT22;8742;51.716;8.790;2023-02-28T16:05:16;13.20;81.90
17252;DHT22;8742;51.716;8.790;2023-02-28T16:07:46;12.90;82.50
17252;DHT22;8742;51.716;8.790;2023-02-28T16:10:14;12.50;80.80
17252;DHT22;8742;51.716;8.790;2023-02-28T16:12:41;12.20;83.80
17252;DHT22;8742;51.716;8.790;2023-02-28T16:15:17;11.70;82.00
17252;DHT22;8742;51.716;8.790;2023-02-28T16:17:46;11.20;84.80
17252;DHT22;8742;51.716;8.790;2023-02-28T16:20:16;10.70;85.40
17252;DHT22;8742;51.716;8.790;2023-02-28T16:22:43;10.10;85.70
17252;DHT22;8742;51.716;8.790;2023-02-28T16:25:12;9.50;86.10
17252;DHT22;8742;51.716;8.790;2023-02-28T16:27:40;8.90;87.20
17252;DHT22;8742;51.716;8.790;2023-02-28T16:30:14;8.30;86.90
17252;DHT22;8742;51.716;8.790;2023-02-28T16:32:42;7.80;88.20
17252;DHT22;8742;51.716;8.790;2023-02-28T16:35:11;7.30;89.00
17252;DHT22;8742;51.716;8.790;2023-02-28T16:37:39;6.90;89.70
17252;DHT22;8742;51.716;8.790;2023-02-28T16:40:08;6.50;90.30
17252;DHT22;8742;51.716;8.790;2023-02-28T16:42:37;6.20;90.50
17252;DHT22;8742;51.716;8.790;2023-02-28T16:45:06;5.90;90.60
17252;DHT22;8742;51.716;8.790;2023-02-28T16:47:37;5.60;90.90
17252;DHT22;8742;51.716;8.790;2023-02-28T16:50:08;5.40;91.00
17252;DHT22;8742;51.716;8.790;2023-02-28T16:52:37;5.20;91.40